sensor_id;sensor_type;location;lat;lon;timestamp;pressure;altitude;pressure_sealevel;temperature;humidity
21520;BME280;10921;53.614;9.882;2023-04-26T00:01:56;101220.94;;;5.63;82.61
21520;BME280;10921;53.614;9.882;2023-04-26T00:04:23;101209.88;;;5.56;82.67
21520;BME280;10921;53.614;9.882;2023-04-26T00:06:51;101216.97;;;5.56;82.89
21520;BME280;10921;53.614;9.882;2023-04-26T00:09:17;101228.31;;;5.58;83.08
21520;BME280;10921;53.614;9.882;2023-04-26T00:11:45;101232.66;;;5.59;83.34
21520;BME280;10921;53.614;9.882;2023-04-26T00:14:11;101240.59;;;5.59;83.60
21520;BME280;10921;53.614;9.882;2023-04-26T00:16:38;101227.56;;;5.56;83.56
21520;BME280;10921;53.614;9.882;2023-04-26T00:19:04;101236.72;;;5.64;83.34
21520;BME280;10921;53.614;9.882;2023-04-26T00:21:31;101226.75;;;5.68;83.61
21520;BME280;10921;53.614;9.882;2023-04-26T00:23:58;101242.34;;;5.73;83.43
21520;BME280;10921;53.614;9.882;2023-04-26T00:26:24;101233.47;;;5.74;83.35
21520;BME280;10921;53.614;9.882;2023-04-26T00:28:51;101196.84;;;5.53;83.33
21520;BME280;10921;53.614;9.882;2023-04-26T00:31:17;101231.38;;;5.79;83.04
21520;BME280;10921;53.614;9.882;2023-04-26T00:33:44;101224.56;;;5.75;82.62
21520;BME280;10921;53.614;9.882;2023-04-26T00:36:12;101234.97;;;5.78;82.29
21520;BME280;10921;53.614;9.882;2023-04-26T00:38:38;101207.13;;;5.58;82.08
21520;BME280;10921;53.614;9.882;2023-04-26T00:41:05;101226.56;;;5.71;81.93
21520;BME280;10921;53.614;9.882;2023-04-26T00:43:31;101232.16;;;5.66;82.03
21520;BME280;10921;53.614;9.882;2023-04-26T00:45:58;101227.28;;;5.60;81.89
21520;BME280;10921;53.614;9.882;2023-04-26T00:48:24;101240.59;;;5.59;81.99
21520;BME280;10921;53.614;9.882;2023-04-26T00:50:51;101226.16;;;5.50;82.07
21520;BME280;10921;53.614;9.882;2023-04-26T00:53:17;101233.81;;;5.55;82.37
21520;BME280;10921;53.614;9.882;2023-04-26T00:55:44;101229.47;;;5.54;82.44
21520;BME280;10921;53.614;9.882;2023-04-26T00:58:11;101192.97;;;5.32;82.71
21520;BME280;10921;53.614;9.882;2023-04-26T01:00:37;101232.19;;;5.52;83.26
21520;BME280;10921;53.614;9.882;2023-04-26T01:03:04;101222.88;;;5.47;83.19
21520;BME280;10921;53.614;9.882;2023-04-26T01:05:31;101219.00;;;5.38;83.06
21520;BME280;10921;53.614;9.882;2023-04-26T01:07:58;101235.16;;;5.48;83.19
21520;BME280;10921;53.614;9.882;2023-04-26T01:10:27;101226.75;;;5.41;82.81
21520;BME280;10921;53.614;9.882;2023-04-26T01:12:54;101172.63;;;5.06;82.72
21520;BME280;10921;53.614;9.882;2023-04-26T01:15:24;101235.00;;;5.37;82.93
21520;BME280;10921;53.614;9.882;2023-04-26T01:17:53;101236.91;;;5.35;82.96
21520;BME280;10921;53.614;9.882;2023-04-26T01:20:19;101232.00;;;5.28;82.97
21520;BME280;10921;53.614;9.882;2023-04-26T01:22:46;101238.34;;;5.26;82.99
21520;BME280;10921;53.614;9.882;2023-04-26T01:25:13;101208.78;;;5.05;82.95
21520;BME280;10921;53.614;9.882;2023-04-26T01:27:39;101248.16;;;5.24;83.03
21520;BME280;10921;53.614;9.882;2023-04-26T01:30:07;101252.78;;;5.20;83.00
21520;BME280;10921;53.614;9.882;2023-04-26T01:32:35;101251.13;;;5.19;83.01
21520;BME280;10921;53.614;9.882;2023-04-26T01:35:01;101236.47;;;5.14;82.99
21520;BME280;10921;53.614;9.882;2023-04-26T01:37:28;101202.78;;;4.89;83.57
21520;BME280;10921;53.614;9.882;2023-04-26T01:39:54;101248.66;;;5.16;83.63
21520;BME280;10921;53.614;9.882;2023-04-26T01:42:21;101236.09;;;5.06;83.82
21520;BME280;10921;53.614;9.882;2023-04-26T01:44:48;101244.50;;;5.12;84.26
21520;BME280;10921;53.614;9.882;2023-04-26T01:47:14;101259.34;;;5.15;84.18
21520;BME280;10921;53.614;9.882;2023-04-26T01:49:40;101244.50;;;5.12;84.11
21520;BME280;10921;53.614;9.882;2023-04-26T01:52:07;101250.38;;;5.17;84.06
21520;BME280;10921;53.614;9.882;2023-04-26T01:54:33;101247.72;;;5.17;83.99
21520;BME280;10921;53.614;9.882;2023-04-26T01:57:00;101214.50;;;4.99;83.93
21520;BME280;10921;53.614;9.882;2023-04-26T01:59:27;101246.88;;;5.17;84.31
21520;BME280;10921;53.614;9.882;2023-04-26T02:01:54;101246.03;;;5.16;83.92
21520;BME280;10921;53.614;9.882;2023-04-26T02:04:20;101232.97;;;5.13;83.83
21520;BME280;10921;53.614;9.882;2023-04-26T02:06:47;101259.69;;;5.23;84.12
21520;BME280;10921;53.614;9.882;2023-04-26T02:09:13;101271.13;;;5.23;84.31
21520;BME280;10921;53.614;9.882;2023-04-26T02:11:40;101268.38;;;5.25;84.43
21520;BME280;10921;53.614;9.882;2023-04-26T02:14:06;101261.47;;;5.22;84.50
21520;BME280;10921;53.614;9.882;2023-04-26T02:16:33;101301.72;;;5.42;84.46
21520;BME280;10921;53.614;9.882;2023-04-26T02:18:59;101260.72;;;5.35;84.79
21520;BME280;10921;53.614;9.882;2023-04-26T02:21:26;101266.38;;;5.43;84.63
21520;BME280;10921;53.614;9.882;2023-04-26T02:23:53;101278.81;;;5.55;84.46
21520;BME280;10921;53.614;9.882;2023-04-26T02:26:20;101257.44;;;5.58;84.07
21520;BME280;10921;53.614;9.882;2023-04-26T02:28:46;101270.47;;;5.61;83.78
21520;BME280;10921;53.614;9.882;2023-04-26T02:31:13;101256.50;;;5.59;83.51
21520;BME280;10921;53.614;9.882;2023-04-26T02:33:39;101263.38;;;5.61;83.36
21520;BME280;10921;53.614;9.882;2023-04-26T02:36:06;101266.13;;;5.60;83.19
21520;BME280;10921;53.614;9.882;2023-04-26T02:38:33;101264.53;;;5.57;82.72
21520;BME280;10921;53.614;9.882;2023-04-26T02:41:02;101260.38;;;5.53;82.53
21520;BME280;10921;53.614;9.882;2023-04-26T02:43:28;101255.50;;;5.47;82.18
21520;BME280;10921;53.614;9.882;2023-04-26T02:45:55;101239.09;;;5.28;81.94
21520;BME280;10921;53.614;9.882;2023-04-26T02:48:24;101234.19;;;5.22;81.93
21520;BME280;10921;53.614;9.882;2023-04-26T02:50:50;101253.94;;;5.30;82.15
21520;BME280;10921;53.614;9.882;2023-04-26T02:53:17;101246.66;;;5.20;82.39
21520;BME280;10921;53.614;9.882;2023-04-26T02:55:44;101252.91;;;5.19;82.98
21520;BME280;10921;53.614;9.882;2023-04-26T02:58:10;101259.44;;;5.13;82.98
21520;BME280;10921;53.614;9.882;2023-04-26T03:00:36;101218.84;;;4.86;83.26
21520;BME280;10921;53.614;9.882;2023-04-26T03:03:03;101269.63;;;5.05;83.29
21520;BME280;10921;53.614;9.882;2023-04-26T03:05:30;101269.75;;;5.04;83.33
21520;BME280;10921;53.614;9.882;2023-04-26T03:07:56;101251.03;;;4.92;83.69
21520;BME280;10921;53.614;9.882;2023-04-26T03:10:23;101260.66;;;4.93;84.16
21520;BME280;10921;53.614;9.882;2023-04-26T03:12:49;101264.16;;;4.94;84.46
21520;BME280;10921;53.614;9.882;2023-04-26T03:15:16;101262.47;;;4.93;85.13
21520;BME280;10921;53.614;9.882;2023-04-26T03:17:42;101260.56;;;4.95;85.62
21520;BME280;10921;53.614;9.882;2023-04-26T03:20:09;101258.13;;;4.92;85.79
21520;BME280;10921;53.614;9.882;2023-04-26T03:22:36;101264.06;;;4.95;85.74
21520;BME280;10921;53.614;9.882;2023-04-26T03:25:03;101248.78;;;4.86;85.59
21520;BME280;10921;53.614;9.882;2023-04-26T03:27:30;101270.13;;;4.98;85.85
21520;BME280;10921;53.614;9.882;2023-04-26T03:29:57;101265.59;;;5.00;85.71
21520;BME280;10921;53.614;9.882;2023-04-26T03:32:23;101250.28;;;4.90;85.97
21520;BME280;10921;53.614;9.882;2023-04-26T03:34:50;101262.94;;;5.00;86.07
21520;BME280;10921;53.614;9.882;2023-04-26T03:37:16;101230.28;;;4.86;85.90
21520;BME280;10921;53.614;9.882;2023-04-26T03:39:43;101260.97;;;5.03;86.00
21520;BME280;10921;53.614;9.882;2023-04-26T03:42:09;101247.94;;;5.00;86.00
21520;BME280;10921;53.614;9.882;2023-04-26T03:44:36;101246.13;;;5.01;86.11
21520;BME280;10921;53.614;9.882;2023-04-26T03:47:02;101254.50;;;5.07;85.73
21520;BME280;10921;53.614;9.882;2023-04-26T03:49:30;101225.75;;;4.88;85.83
21520;BME280;10921;53.614;9.882;2023-04-26T03:51:57;101256.41;;;5.05;85.77
21520;BME280;10921;53.614;9.882;2023-04-26T03:54:23;101260.84;;;5.05;85.62
21520;BME280;10921;53.614;9.882;2023-04-26T03:56:50;101261.81;;;5.04;85.90
21520;BME280;10921;53.614;9.882;2023-04-26T03:59:17;101257.47;;;5.03;85.56
21520;BME280;10921;53.614;9.882;2023-04-26T04:01:43;101256.22;;;4.94;85.54
21520;BME280;10921;53.614;9.882;2023-04-26T04:04:10;101257.00;;;4.96;85.38
21520;BME280;10921;53.614;9.882;2023-04-26T04:06:37;101269.94;;;5.01;85.48
21520;BME280;10921;53.614;9.882;2023-04-26T04:09:03;101264.75;;;4.99;85.50
21520;BME280;10921;53.614;9.882;2023-04-26T04:11:32;101259.53;;;4.98;85.42
21520;BME280;10921;53.614;9.882;2023-04-26T04:13:59;101277.03;;;5.00;85.45
21520;BME280;10921;53.614;9.882;2023-04-26T04:16:26;101265.59;;;5.00;85.33
21520;BME280;10921;53.614;9.882;2023-04-26T04:18:53;101263.13;;;4.97;85.26
21520;BME280;10921;53.614;9.882;2023-04-26T04:21:20;101268.22;;;5.00;85.02
21520;BME280;10921;53.614;9.882;2023-04-26T04:23:46;101272.84;;;4.96;85.15
21520;BME280;10921;53.614;9.882;2023-04-26T04:26:13;101226.22;;;4.67;85.29
21520;BME280;10921;53.614;9.882;2023-04-26T04:28:39;101250.59;;;4.86;85.37
21520;BME280;10921;53.614;9.882;2023-04-26T04:31:10;101274.38;;;5.00;85.26
21520;BME280;10921;53.614;9.882;2023-04-26T04:33:36;101278.16;;;4.96;85.47
21520;BME280;10921;53.614;9.882;2023-04-26T04:36:03;101287.50;;;5.02;85.39
21520;BME280;10921;53.614;9.882;2023-04-26T04:38:30;101277.47;;;4.92;85.51
21520;BME280;10921;53.614;9.882;2023-04-26T04:40:56;101300.41;;;5.06;85.66
21520;BME280;10921;53.614;9.882;2023-04-26T04:43:23;101293.16;;;5.10;85.90
21520;BME280;10921;53.614;9.882;2023-04-26T04:45:50;101290.22;;;5.14;85.82
21520;BME280;10921;53.614;9.882;2023-04-26T04:48:16;101297.03;;;5.18;86.17
21520;BME280;10921;53.614;9.882;2023-04-26T04:50:43;101288.25;;;5.18;86.12
21520;BME280;10921;53.614;9.882;2023-04-26T04:53:10;101269.72;;;5.18;86.48
21520;BME280;10921;53.614;9.882;2023-04-26T04:55:38;101295.84;;;5.37;86.32
21520;BME280;10921;53.614;9.882;2023-04-26T04:58:04;101277.34;;;5.37;86.15
21520;BME280;10921;53.614;9.882;2023-04-26T05:00:31;101288.09;;;5.48;86.16
21520;BME280;10921;53.614;9.882;2023-04-26T05:02:59;101252.97;;;5.32;86.03
21520;BME280;10921;53.614;9.882;2023-04-26T05:05:26;101257.69;;;5.41;86.16
21520;BME280;10921;53.614;9.882;2023-04-26T05:07:52;101281.66;;;5.52;85.80
21520;BME280;10921;53.614;9.882;2023-04-26T05:10:19;101292.94;;;5.68;85.98
21520;BME280;10921;53.614;9.882;2023-04-26T05:12:45;101264.53;;;5.57;85.83
21520;BME280;10921;53.614;9.882;2023-04-26T05:15:12;101241.22;;;5.50;85.56
21520;BME280;10921;53.614;9.882;2023-04-26T05:17:40;101273.09;;;5.75;85.18
21520;BME280;10921;53.614;9.882;2023-04-26T05:20:07;101261.69;;;5.60;85.01
21520;BME280;10921;53.614;9.882;2023-04-26T05:22:34;101282.81;;;5.75;84.76
21520;BME280;10921;53.614;9.882;2023-04-26T05:25:02;101283.13;;;5.70;84.54
21520;BME280;10921;53.614;9.882;2023-04-26T05:27:30;101296.34;;;5.70;84.63
21520;BME280;10921;53.614;9.882;2023-04-26T05:29:56;101305.06;;;5.72;84.71
21520;BME280;10921;53.614;9.882;2023-04-26T05:32:23;101270.47;;;5.61;85.18
21520;BME280;10921;53.614;9.882;2023-04-26T05:34:50;101273.66;;;5.66;86.05
21520;BME280;10921;53.614;9.882;2023-04-26T05:37:17;101302.53;;;5.83;86.40
21520;BME280;10921;53.614;9.882;2023-04-26T05:39:44;101327.88;;;6.02;87.22
21520;BME280;10921;53.614;9.882;2023-04-26T05:42:10;101318.50;;;6.10;87.16
21520;BME280;10921;53.614;9.882;2023-04-26T05:44:37;101277.34;;;6.05;86.52
21520;BME280;10921;53.614;9.882;2023-04-26T05:47:03;101288.09;;;6.28;86.04
21520;BME280;10921;53.614;9.882;2023-04-26T05:49:30;101294.88;;;6.32;85.81
21520;BME280;10921;53.614;9.882;2023-04-26T05:51:59;101311.75;;;6.44;85.26
21520;BME280;10921;53.614;9.882;2023-04-26T05:54:26;101284.09;;;6.35;85.05
21520;BME280;10921;53.614;9.882;2023-04-26T05:56:52;101318.16;;;6.54;84.74
21520;BME280;10921;53.614;9.882;2023-04-26T05:59:19;101300.00;;;6.48;84.36
21520;BME280;10921;53.614;9.882;2023-04-26T06:01:46;101313.47;;;6.58;83.74
21520;BME280;10921;53.614;9.882;2023-04-26T06:04:12;101307.31;;;6.57;83.75
21520;BME280;10921;53.614;9.882;2023-04-26T06:06:39;101322.06;;;6.61;83.85
21520;BME280;10921;53.614;9.882;2023-04-26T06:09:05;101301.06;;;6.58;84.13
21520;BME280;10921;53.614;9.882;2023-04-26T06:11:32;101301.09;;;6.71;84.62
21520;BME280;10921;53.614;9.882;2023-04-26T06:13:58;101305.22;;;6.75;83.71
21520;BME280;10921;53.614;9.882;2023-04-26T06:16:25;101297.69;;;6.82;83.46
21520;BME280;10921;53.614;9.882;2023-04-26T06:18:51;101303.66;;;6.85;83.25
21520;BME280;10921;53.614;9.882;2023-04-26T06:21:18;101264.16;;;6.68;83.31
21520;BME280;10921;53.614;9.882;2023-04-26T06:23:44;101286.13;;;6.95;83.03
21520;BME280;10921;53.614;9.882;2023-04-26T06:26:11;101298.41;;;7.09;82.59
21520;BME280;10921;53.614;9.882;2023-04-26T06:28:38;101297.44;;;7.23;82.43
21520;BME280;10921;53.614;9.882;2023-04-26T06:31:07;101301.00;;;7.34;81.61
21520;BME280;10921;53.614;9.882;2023-04-26T06:33:34;101306.63;;;7.43;79.94
21520;BME280;10921;53.614;9.882;2023-04-26T06:36:00;101304.50;;;7.48;79.29
21520;BME280;10921;53.614;9.882;2023-04-26T06:38:27;101254.00;;;7.24;78.63
21520;BME280;10921;53.614;9.882;2023-04-26T06:40:53;101298.47;;;7.46;78.22
21520;BME280;10921;53.614;9.882;2023-04-26T06:43:20;101307.56;;;7.54;78.11
21520;BME280;10921;53.614;9.882;2023-04-26T06:45:48;101313.94;;;7.52;78.10
21520;BME280;10921;53.614;9.882;2023-04-26T06:48:14;101312.22;;;7.51;77.28
21520;BME280;10921;53.614;9.882;2023-04-26T06:50:41;101308.28;;;7.56;77.23
21520;BME280;10921;53.614;9.882;2023-04-26T06:53:07;101321.38;;;7.59;77.23
21520;BME280;10921;53.614;9.882;2023-04-26T06:55:34;101299.59;;;7.54;77.90
21520;BME280;10921;53.614;9.882;2023-04-26T06:58:00;101309.22;;;7.68;78.30
21520;BME280;10921;53.614;9.882;2023-04-26T07:00:27;101321.25;;;7.85;78.41
21520;BME280;10921;53.614;9.882;2023-04-26T07:02:55;101315.78;;;7.99;77.61
21520;BME280;10921;53.614;9.882;2023-04-26T07:05:22;101319.84;;;8.16;77.16
21520;BME280;10921;53.614;9.882;2023-04-26T07:07:48;101312.75;;;8.27;75.30
21520;BME280;10921;53.614;9.882;2023-04-26T07:10:16;101295.47;;;8.22;73.17
21520;BME280;10921;53.614;9.882;2023-04-26T07:12:42;101313.56;;;8.40;73.45
21520;BME280;10921;53.614;9.882;2023-04-26T07:15:09;101320.13;;;8.48;72.69
21520;BME280;10921;53.614;9.882;2023-04-26T07:17:36;101306.81;;;8.48;72.22
21520;BME280;10921;53.614;9.882;2023-04-26T07:20:02;101311.81;;;8.63;72.30
21520;BME280;10921;53.614;9.882;2023-04-26T07:22:29;101329.59;;;8.74;71.59
21520;BME280;10921;53.614;9.882;2023-04-26T07:24:56;101320.53;;;8.76;71.12
21520;BME280;10921;53.614;9.882;2023-04-26T07:27:23;101292.75;;;8.69;71.82
21520;BME280;10921;53.614;9.882;2023-04-26T07:29:54;101312.22;;;8.81;70.72
21520;BME280;10921;53.614;9.882;2023-04-26T07:32:23;101330.41;;;8.98;70.55
21520;BME280;10921;53.614;9.882;2023-04-26T07:34:50;101326.28;;;9.05;68.08
21520;BME280;10921;53.614;9.882;2023-04-26T07:37:16;101335.09;;;9.17;68.09
21520;BME280;10921;53.614;9.882;2023-04-26T07:39:43;101310.44;;;9.15;67.10
21520;BME280;10921;53.614;9.882;2023-04-26T07:42:09;101348.31;;;9.52;67.97
21520;BME280;10921;53.614;9.882;2023-04-26T07:44:36;101345.38;;;9.66;65.92
21520;BME280;10921;53.614;9.882;2023-04-26T07:47:02;101357.69;;;9.78;66.00
21520;BME280;10921;53.614;9.882;2023-04-26T07:49:29;101389.69;;;9.78;66.25
21520;BME280;10921;53.614;9.882;2023-04-26T07:51:55;101385.25;;;9.57;65.03
21520;BME280;10921;53.614;9.882;2023-04-26T07:54:23;101391.91;;;9.29;65.73
21520;BME280;10921;53.614;9.882;2023-04-26T07:56:50;101394.50;;;8.95;67.51
21520;BME280;10921;53.614;9.882;2023-04-26T07:59:16;101366.50;;;8.67;68.11
21520;BME280;10921;53.614;9.882;2023-04-26T08:01:43;101374.50;;;8.43;70.11
21520;BME280;10921;53.614;9.882;2023-04-26T08:04:09;101375.72;;;8.27;71.98
21520;BME280;10921;53.614;9.882;2023-04-26T08:06:36;101374.59;;;8.18;74.09
21520;BME280;10921;53.614;9.882;2023-04-26T08:09:04;101381.09;;;8.14;75.26
21520;BME280;10921;53.614;9.882;2023-04-26T08:11:30;101366.69;;;8.05;75.78
21520;BME280;10921;53.614;9.882;2023-04-26T08:13:57;101356.28;;;8.02;76.12
21520;BME280;10921;53.614;9.882;2023-04-26T08:16:24;101377.16;;;8.20;76.96
21520;BME280;10921;53.614;9.882;2023-04-26T08:18:51;101370.66;;;8.24;76.84
21520;BME280;10921;53.614;9.882;2023-04-26T08:21:17;101387.41;;;8.37;78.28
21520;BME280;10921;53.614;9.882;2023-04-26T08:23:43;101379.81;;;8.43;77.48
21520;BME280;10921;53.614;9.882;2023-04-26T08:26:10;101336.94;;;8.24;76.96
21520;BME280;10921;53.614;9.882;2023-04-26T08:28:36;101370.91;;;8.56;76.51
21520;BME280;10921;53.614;9.882;2023-04-26T08:31:03;101374.47;;;8.67;76.62
21520;BME280;10921;53.614;9.882;2023-04-26T08:33:30;101363.22;;;8.64;75.22
21520;BME280;10921;53.614;9.882;2023-04-26T08:35:58;101366.63;;;8.77;75.94
21520;BME280;10921;53.614;9.882;2023-04-26T08:38:26;101374.75;;;8.87;75.92
21520;BME280;10921;53.614;9.882;2023-04-26T08:40:54;101383.84;;;8.95;75.66
21520;BME280;10921;53.614;9.882;2023-04-26T08:43:21;101366.69;;;8.99;76.37
21520;BME280;10921;53.614;9.882;2023-04-26T08:45:48;101358.72;;;8.99;74.16
21520;BME280;10921;53.614;9.882;2023-04-26T08:48:15;101371.41;;;9.18;72.60
21520;BME280;10921;53.614;9.882;2023-04-26T08:50:44;101368.16;;;9.37;73.99
21520;BME280;10921;53.614;9.882;2023-04-26T08:53:14;101366.34;;;9.60;73.98
21520;BME280;10921;53.614;9.882;2023-04-26T08:55:49;101326.97;;;9.63;72.36
21520;BME280;10921;53.614;9.882;2023-04-26T08:58:17;101337.72;;;9.84;69.10
21520;BME280;10921;53.614;9.882;2023-04-26T09:00:44;101364.41;;;10.16;67.54
21520;BME280;10921;53.614;9.882;2023-04-26T09:03:11;101366.34;;;10.25;65.32
21520;BME280;10921;53.614;9.882;2023-04-26T09:05:39;101363.78;;;10.35;66.47
21520;BME280;10921;53.614;9.882;2023-04-26T09:08:12;101359.03;;;10.38;66.66
21520;BME280;10921;53.614;9.882;2023-04-26T09:10:41;101348.81;;;10.43;66.90
21520;BME280;10921;53.614;9.882;2023-04-26T09:13:08;101358.91;;;10.61;66.98
21520;BME280;10921;53.614;9.882;2023-04-26T09:15:35;101368.06;;;10.79;64.90
21520;BME280;10921;53.614;9.882;2023-04-26T09:18:18;101362.72;;;11.00;62.29
21520;BME280;10921;53.614;9.882;2023-04-26T09:21:00;101360.00;;;11.20;60.01
21520;BME280;10921;53.614;9.882;2023-04-26T09:23:27;101333.91;;;11.03;56.72
21520;BME280;10921;53.614;9.882;2023-04-26T09:25:53;101374.56;;;11.37;57.13
21520;BME280;10921;53.614;9.882;2023-04-26T09:28:22;101380.78;;;11.47;57.08
21520;BME280;10921;53.614;9.882;2023-04-26T09:30:49;101364.94;;;11.55;54.85
21520;BME280;10921;53.614;9.882;2023-04-26T09:33:16;101374.28;;;11.71;54.69
21520;BME280;10921;53.614;9.882;2023-04-26T09:35:43;101378.16;;;11.87;53.79
21520;BME280;10921;53.614;9.882;2023-04-26T09:38:15;101360.75;;;12.12;54.26
21520;BME280;10921;53.614;9.882;2023-04-26T09:40:47;101365.97;;;12.43;54.12
21520;BME280;10921;53.614;9.882;2023-04-26T09:43:16;101365.53;;;12.76;52.56
21520;BME280;10921;53.614;9.882;2023-04-26T09:45:50;101372.25;;;13.19;53.98
21520;BME280;10921;53.614;9.882;2023-04-26T09:48:20;101375.50;;;13.50;50.75
21520;BME280;10921;53.614;9.882;2023-04-26T09:50:50;101368.94;;;13.71;49.95
21520;BME280;10921;53.614;9.882;2023-04-26T09:53:28;101376.97;;;13.99;51.47
21520;BME280;10921;53.614;9.882;2023-04-26T09:55:55;101373.44;;;13.98;48.80
21520;BME280;10921;53.614;9.882;2023-04-26T09:58:22;101376.84;;;13.91;48.48
21520;BME280;10921;53.614;9.882;2023-04-26T10:00:50;101391.03;;;13.83;47.97
21520;BME280;10921;53.614;9.882;2023-04-26T10:03:18;101389.78;;;13.78;48.17
21520;BME280;10921;53.614;9.882;2023-04-26T10:05:48;101386.94;;;13.52;46.95
21520;BME280;10921;53.614;9.882;2023-04-26T10:08:15;101391.50;;;13.42;47.88
21520;BME280;10921;53.614;9.882;2023-04-26T10:10:42;101403.06;;;13.42;47.96
21520;BME280;10921;53.614;9.882;2023-04-26T10:13:10;101388.97;;;13.40;49.03
21520;BME280;10921;53.614;9.882;2023-04-26T10:15:38;101389.13;;;13.38;47.22
21520;BME280;10921;53.614;9.882;2023-04-26T10:18:04;101376.75;;;13.28;47.03
21520;BME280;10921;53.614;9.882;2023-04-26T10:20:32;101384.69;;;13.47;47.30
21520;BME280;10921;53.614;9.882;2023-04-26T10:23:01;101392.94;;;13.63;47.62
21520;BME280;10921;53.614;9.882;2023-04-26T10:25:38;101412.38;;;13.75;47.10
21520;BME280;10921;53.614;9.882;2023-04-26T10:28:05;101399.56;;;13.96;47.27
21520;BME280;10921;53.614;9.882;2023-04-26T10:30:32;101396.91;;;14.14;47.09
21520;BME280;10921;53.614;9.882;2023-04-26T10:33:18;101386.75;;;14.35;47.19
21520;BME280;10921;53.614;9.882;2023-04-26T10:36:00;101391.00;;;14.56;46.67
21520;BME280;10921;53.614;9.882;2023-04-26T10:38:27;101368.50;;;14.57;45.54
21520;BME280;10921;53.614;9.882;2023-04-26T10:40:54;101407.50;;;14.61;45.96
21520;BME280;10921;53.614;9.882;2023-04-26T10:43:28;101409.56;;;14.49;47.17
21520;BME280;10921;53.614;9.882;2023-04-26T10:45:55;101365.28;;;13.90;47.27
21520;BME280;10921;53.614;9.882;2023-04-26T10:48:29;101422.38;;;13.83;47.83
21520;BME280;10921;53.614;9.882;2023-04-26T10:59:13;101388.38;;;12.80;48.11
21520;BME280;10921;53.614;9.882;2023-04-26T11:01:43;101411.34;;;12.83;47.91
21520;BME280;10921;53.614;9.882;2023-04-26T11:04:11;101412.88;;;12.76;48.45
21520;BME280;10921;53.614;9.882;2023-04-26T11:06:54;101395.00;;;12.66;49.45
21520;BME280;10921;53.614;9.882;2023-04-26T11:09:35;101400.91;;;12.89;49.81
21520;BME280;10921;53.614;9.882;2023-04-26T11:12:03;101400.34;;;12.95;49.71
21520;BME280;10921;53.614;9.882;2023-04-26T11:14:32;101398.63;;;13.04;48.12
21520;BME280;10921;53.614;9.882;2023-04-26T11:17:02;101395.22;;;13.12;47.57
21520;BME280;10921;53.614;9.882;2023-04-26T11:19:30;101408.19;;;13.26;46.61
21520;BME280;10921;53.614;9.882;2023-04-26T11:22:00;101394.47;;;13.38;46.14
21520;BME280;10921;53.614;9.882;2023-04-26T11:24:29;101410.78;;;13.55;46.93
21520;BME280;10921;53.614;9.882;2023-04-26T11:26:56;101401.00;;;13.63;46.11
21520;BME280;10921;53.614;9.882;2023-04-26T11:29:26;101415.25;;;13.91;45.56
21520;BME280;10921;53.614;9.882;2023-04-26T11:31:57;101370.66;;;13.63;45.22
21520;BME280;10921;53.614;9.882;2023-04-26T11:34:30;101408.53;;;13.87;44.12
21520;BME280;10921;53.614;9.882;2023-04-26T11:36:57;101401.00;;;13.91;44.33
21520;BME280;10921;53.614;9.882;2023-04-26T11:39:23;101407.03;;;14.02;43.92
21520;BME280;10921;53.614;9.882;2023-04-26T11:41:50;101399.53;;;14.24;44.26
21520;BME280;10921;53.614;9.882;2023-04-26T11:44:18;101388.06;;;14.31;44.41
21520;BME280;10921;53.614;9.882;2023-04-26T11:46:47;101421.53;;;14.55;43.51
21520;BME280;10921;53.614;9.882;2023-04-26T11:49:15;101401.97;;;14.62;44.91
21520;BME280;10921;53.614;9.882;2023-04-26T11:51:46;101409.34;;;14.78;43.62
21520;BME280;10921;53.614;9.882;2023-04-26T11:54:26;101368.09;;;14.69;43.75
21520;BME280;10921;53.614;9.882;2023-04-26T11:56:52;101395.03;;;15.21;44.53
21520;BME280;10921;53.614;9.882;2023-04-26T11:59:26;101411.34;;;15.28;42.95
21520;BME280;10921;53.614;9.882;2023-04-26T12:01:54;101395.22;;;15.28;43.58
21520;BME280;10921;53.614;9.882;2023-04-26T12:04:30;101399.19;;;15.16;43.55
21520;BME280;10921;53.614;9.882;2023-04-26T12:06:57;101389.69;;;15.03;41.58
21520;BME280;10921;53.614;9.882;2023-04-26T12:09:28;101407.09;;;15.17;41.79
21520;BME280;10921;53.614;9.882;2023-04-26T12:11:59;101414.53;;;15.23;42.78
21520;BME280;10921;53.614;9.882;2023-04-26T12:14:34;101397.25;;;15.26;42.00
21520;BME280;10921;53.614;9.882;2023-04-26T12:17:01;101411.06;;;15.31;41.44
21520;BME280;10921;53.614;9.882;2023-04-26T12:19:36;101403.03;;;15.39;41.03
21520;BME280;10921;53.614;9.882;2023-04-26T12:22:07;101422.28;;;15.52;41.66
21520;BME280;10921;53.614;9.882;2023-04-26T12:24:39;101418.44;;;15.55;40.41
21520;BME280;10921;53.614;9.882;2023-04-26T12:27:19;101419.34;;;15.63;42.17
21520;BME280;10921;53.614;9.882;2023-04-26T12:29:46;101417.97;;;15.59;41.29
21520;BME280;10921;53.614;9.882;2023-04-26T12:32:12;101428.50;;;15.53;41.24
21520;BME280;10921;53.614;9.882;2023-04-26T12:34:38;101430.09;;;15.37;41.03
21520;BME280;10921;53.614;9.882;2023-04-26T12:37:05;101422.50;;;15.07;40.54
21520;BME280;10921;53.614;9.882;2023-04-26T12:39:32;101414.00;;;14.76;41.04
21520;BME280;10921;53.614;9.882;2023-04-26T12:41:58;101399.78;;;14.30;41.96
21520;BME280;10921;53.614;9.882;2023-04-26T12:44:25;101416.16;;;14.09;42.86
21520;BME280;10921;53.614;9.882;2023-04-26T12:46:51;101445.13;;;14.06;43.21
21520;BME280;10921;53.614;9.882;2023-04-26T12:49:18;101443.53;;;13.86;44.31
21520;BME280;10921;53.614;9.882;2023-04-26T12:51:45;101430.91;;;13.68;44.90
21520;BME280;10921;53.614;9.882;2023-04-26T12:54:12;101405.84;;;13.50;44.20
21520;BME280;10921;53.614;9.882;2023-04-26T12:56:38;101437.81;;;13.71;44.44
21520;BME280;10921;53.614;9.882;2023-04-26T12:59:09;101436.63;;;13.83;44.73
21520;BME280;10921;53.614;9.882;2023-04-26T13:01:35;101405.16;;;13.85;44.65
21520;BME280;10921;53.614;9.882;2023-04-26T13:04:02;101433.22;;;14.18;43.45
21520;BME280;10921;53.614;9.882;2023-04-26T13:06:31;101439.44;;;14.36;43.38
21520;BME280;10921;53.614;9.882;2023-04-26T13:08:58;101425.00;;;14.47;43.15